sensor_id;sensor_type;location;lat;lon;timestamp;P1;durP1;ratioP1;P2;durP2;ratioP2
1759;SDS011;877;46.266;20.062;2022-12-29T00:02:15;20.20;;;13.82;;
1759;SDS011;877;46.266;20.062;2022-12-29T00:04:59;24.00;;;14.43;;
1759;SDS011;877;46.266;20.062;2022-12-29T00:07:32;23.20;;;13.98;;
1759;SDS011;877;46.266;20.062;2022-12-29T00:10:06;25.90;;;14.50;;
1759;SDS011;877;46.266;20.062;2022-12-29T00:12:39;22.88;;;14.52;;
1759;SDS011;877;46.266;20.062;2022-12-29T00:15:30;19.75;;;11.93;;
1759;SDS011;877;46.266;20.062;2022-12-29T00:18:10;20.13;;;13.60;;
1759;SDS011;877;46.266;20.062;2022-12-29T00:23:45;24.40;;;13.63;;
1759;SDS011;877;46.266;20.062;2022-12-29T00:26:35;24.98;;;14.10;;
1759;SDS011;877;46.266;20.062;2022-12-29T00:29:26;22.73;;;12.98;;
1759;SDS011;877;46.266;20.062;2022-12-29T00:32:11;23.48;;;13.10;;
1759;SDS011;877;46.266;20.062;2022-12-29T00:34:58;23.80;;;14.20;;
1759;SDS011;877;46.266;20.062;2022-12-29T00:37:42;22.35;;;13.75;;
1759;SDS011;877;46.266;20.062;2022-12-29T00:40:29;28.25;;;14.25;;
1759;SDS011;877;46.266;20.062;2022-12-29T00:48:53;21.52;;;13.45;;
1759;SDS011;877;46.266;20.062;2022-12-29T00:51:41;22.35;;;13.75;;
1759;SDS011;877;46.266;20.062;2022-12-29T00:54:09;20.05;;;12.40;;
1759;SDS011;877;46.266;20.062;2022-12-29T00:56:47;27.55;;;14.57;;
1759;SDS011;877;46.266;20.062;2022-12-29T00:59:19;25.98;;;14.35;;
1759;SDS011;877;46.266;20.062;2022-12-29T01:01:47;22.17;;;13.30;;
1759;SDS011;877;46.266;20.062;2022-12-29T01:04:14;21.50;;;12.90;;
1759;SDS011;877;46.266;20.062;2022-12-29T01:06:41;22.63;;;12.15;;
1759;SDS011;877;46.266;20.062;2022-12-29T01:09:13;19.15;;;12.25;;
1759;SDS011;877;46.266;20.062;2022-12-29T01:12:03;20.65;;;12.95;;
1759;SDS011;877;46.266;20.062;2022-12-29T01:14:36;22.90;;;10.90;;
1759;SDS011;877;46.266;20.062;2022-12-29T01:17:05;20.33;;;12.13;;
1759;SDS011;877;46.266;20.062;2022-12-29T01:19:31;20.92;;;12.38;;
1759;SDS011;877;46.266;20.062;2022-12-29T01:22:06;23.20;;;12.13;;
1759;SDS011;877;46.266;20.062;2022-12-29T01:24:34;22.25;;;12.48;;
1759;SDS011;877;46.266;20.062;2022-12-29T01:27:00;17.40;;;11.02;;
1759;SDS011;877;46.266;20.062;2022-12-29T01:29:34;26.95;;;15.93;;
1759;SDS011;877;46.266;20.062;2022-12-29T01:32:02;29.50;;;14.52;;
1759;SDS011;877;46.266;20.062;2022-12-29T01:34:29;22.67;;;12.90;;
1759;SDS011;877;46.266;20.062;2022-12-29T01:36:56;23.02;;;12.02;;
1759;SDS011;877;46.266;20.062;2022-12-29T01:41:53;20.00;;;11.35;;
1759;SDS011;877;46.266;20.062;2022-12-29T01:49:48;26.50;;;12.35;;
1759;SDS011;877;46.266;20.062;2022-12-29T01:52:17;20.48;;;10.45;;
1759;SDS011;877;46.266;20.062;2022-12-29T01:54:47;23.02;;;12.07;;
1759;SDS011;877;46.266;20.062;2022-12-29T01:57:20;14.15;;;9.68;;
1759;SDS011;877;46.266;20.062;2022-12-29T01:59:54;17.73;;;10.07;;
1759;SDS011;877;46.266;20.062;2022-12-29T02:02:22;16.55;;;10.02;;
1759;SDS011;877;46.266;20.062;2022-12-29T02:04:50;15.48;;;9.65;;
1759;SDS011;877;46.266;20.062;2022-12-29T02:07:21;17.65;;;10.00;;
1759;SDS011;877;46.266;20.062;2022-12-29T02:09:48;15.82;;;10.40;;
1759;SDS011;877;46.266;20.062;2022-12-29T02:28:38;14.82;;;8.35;;
1759;SDS011;877;46.266;20.062;2022-12-29T02:31:24;17.27;;;10.70;;
1759;SDS011;877;46.266;20.062;2022-12-29T02:36:46;17.40;;;10.77;;
1759;SDS011;877;46.266;20.062;2022-12-29T02:39:15;16.75;;;10.00;;
1759;SDS011;877;46.266;20.062;2022-12-29T02:41:56;17.50;;;10.88;;
1759;SDS011;877;46.266;20.062;2022-12-29T02:44:36;15.65;;;9.05;;
1759;SDS011;877;46.266;20.062;2022-12-29T02:47:11;17.77;;;10.25;;
1759;SDS011;877;46.266;20.062;2022-12-29T02:49:53;16.90;;;10.13;;
1759;SDS011;877;46.266;20.062;2022-12-29T02:57:33;16.77;;;10.35;;
1759;SDS011;877;46.266;20.062;2022-12-29T03:10:35;19.33;;;10.75;;
1759;SDS011;877;46.266;20.062;2022-12-29T03:19:23;15.70;;;9.55;;
1759;SDS011;877;46.266;20.062;2022-12-29T03:21:59;21.85;;;9.77;;
1759;SDS011;877;46.266;20.062;2022-12-29T03:24:46;16.05;;;10.73;;
1759;SDS011;877;46.266;20.062;2022-12-29T03:27:17;20.17;;;11.27;;
1759;SDS011;877;46.266;20.062;2022-12-29T03:29:48;17.70;;;9.43;;
1759;SDS011;877;46.266;20.062;2022-12-29T03:32:22;18.30;;;10.75;;
1759;SDS011;877;46.266;20.062;2022-12-29T03:34:50;18.67;;;10.68;;
1759;SDS011;877;46.266;20.062;2022-12-29T03:37:18;16.55;;;11.10;;
1759;SDS011;877;46.266;20.062;2022-12-29T03:39:46;17.88;;;10.32;;
1759;SDS011;877;46.266;20.062;2022-12-29T03:42:16;15.68;;;9.77;;
1759;SDS011;877;46.266;20.062;2022-12-29T03:44:43;15.82;;;9.60;;
1759;SDS011;877;46.266;20.062;2022-12-29T03:47:15;24.40;;;11.02;;
1759;SDS011;877;46.266;20.062;2022-12-29T03:49:49;14.30;;;9.25;;
1759;SDS011;877;46.266;20.062;2022-12-29T03:54:47;15.57;;;10.00;;
1759;SDS011;877;46.266;20.062;2022-12-29T03:57:15;16.52;;;9.77;;
1759;SDS011;877;46.266;20.062;2022-12-29T03:59:43;23.15;;;10.75;;
1759;SDS011;877;46.266;20.062;2022-12-29T04:02:10;17.90;;;11.27;;
1759;SDS011;877;46.266;20.062;2022-12-29T04:04:36;19.13;;;11.15;;
1759;SDS011;877;46.266;20.062;2022-12-29T04:07:02;19.42;;;11.10;;
1759;SDS011;877;46.266;20.062;2022-12-29T04:09:41;19.85;;;10.60;;
1759;SDS011;877;46.266;20.062;2022-12-29T04:12:15;23.92;;;10.40;;
1759;SDS011;877;46.266;20.062;2022-12-29T04:14:42;15.65;;;10.27;;
1759;SDS011;877;46.266;20.062;2022-12-29T04:17:09;17.27;;;10.48;;
1759;SDS011;877;46.266;20.062;2022-12-29T04:19:35;20.95;;;10.82;;
1759;SDS011;877;46.266;20.062;2022-12-29T04:22:10;15.43;;;11.60;;
1759;SDS011;877;46.266;20.062;2022-12-29T04:24:51;19.33;;;10.63;;
1759;SDS011;877;46.266;20.062;2022-12-29T04:27:19;17.42;;;10.43;;
1759;SDS011;877;46.266;20.062;2022-12-29T04:34:55;18.63;;;10.95;;
1759;SDS011;877;46.266;20.062;2022-12-29T04:37:21;16.42;;;11.52;;
1759;SDS011;877;46.266;20.062;2022-12-29T04:39:59;16.27;;;10.73;;
1759;SDS011;877;46.266;20.062;2022-12-29T04:42:27;25.92;;;11.85;;
1759;SDS011;877;46.266;20.062;2022-12-29T04:44:54;25.10;;;10.57;;
1759;SDS011;877;46.266;20.062;2022-12-29T04:47:21;15.32;;;10.48;;
1759;SDS011;877;46.266;20.062;2022-12-29T04:49:48;19.55;;;11.38;;
1759;SDS011;877;46.266;20.062;2022-12-29T04:52:14;19.33;;;11.38;;
1759;SDS011;877;46.266;20.062;2022-12-29T04:54:43;18.90;;;10.85;;
1759;SDS011;877;46.266;20.062;2022-12-29T04:57:10;18.95;;;10.50;;
1759;SDS011;877;46.266;20.062;2022-12-29T04:59:37;16.75;;;10.45;;
1759;SDS011;877;46.266;20.062;2022-12-29T05:02:05;20.55;;;12.63;;
1759;SDS011;877;46.266;20.062;2022-12-29T05:04:38;22.90;;;11.55;;
1759;SDS011;877;46.266;20.062;2022-12-29T05:07:06;17.17;;;9.80;;
1759;SDS011;877;46.266;20.062;2022-12-29T05:09:32;17.60;;;12.18;;
1759;SDS011;877;46.266;20.062;2022-12-29T05:12:05;19.90;;;11.90;;
1759;SDS011;877;46.266;20.062;2022-12-29T05:14:33;19.67;;;10.85;;
1759;SDS011;877;46.266;20.062;2022-12-29T05:16:59;21.20;;;10.65;;
1759;SDS011;877;46.266;20.062;2022-12-29T05:19:27;17.17;;;11.00;;
1759;SDS011;877;46.266;20.062;2022-12-29T05:22:02;20.33;;;11.02;;
1759;SDS011;877;46.266;20.062;2022-12-29T05:24:29;19.08;;;11.50;;
1759;SDS011;877;46.266;20.062;2022-12-29T05:27:03;16.27;;;9.68;;
1759;SDS011;877;46.266;20.062;2022-12-29T05:29:29;20.15;;;10.88;;
1759;SDS011;877;46.266;20.062;2022-12-29T05:34:36;19.17;;;11.45;;
1759;SDS011;877;46.266;20.062;2022-12-29T05:37:04;23.27;;;10.93;;
1759;SDS011;877;46.266;20.062;2022-12-29T05:39:30;20.55;;;12.32;;
1759;SDS011;877;46.266;20.062;2022-12-29T05:41:56;21.77;;;11.70;;
1759;SDS011;877;46.266;20.062;2022-12-29T05:44:28;17.85;;;10.73;;
1759;SDS011;877;46.266;20.062;2022-12-29T05:46:54;21.73;;;11.82;;
1759;SDS011;877;46.266;20.062;2022-12-29T05:49:21;20.90;;;11.05;;
1759;SDS011;877;46.266;20.062;2022-12-29T05:51:57;18.63;;;11.40;;
1759;SDS011;877;46.266;20.062;2022-12-29T05:54:37;20.85;;;12.68;;
1759;SDS011;877;46.266;20.062;2022-12-29T05:57:05;18.65;;;11.60;;
1759;SDS011;877;46.266;20.062;2022-12-29T05:59:35;21.52;;;11.63;;
1759;SDS011;877;46.266;20.062;2022-12-29T06:02:06;22.50;;;11.73;;
1759;SDS011;877;46.266;20.062;2022-12-29T06:12:32;20.65;;;12.27;;
1759;SDS011;877;46.266;20.062;2022-12-29T06:15:05;24.58;;;12.00;;
1759;SDS011;877;46.266;20.062;2022-12-29T06:17:34;20.25;;;12.73;;
1759;SDS011;877;46.266;20.062;2022-12-29T06:20:05;25.00;;;13.63;;
1759;SDS011;877;46.266;20.062;2022-12-29T06:22:32;28.55;;;15.40;;
1759;SDS011;877;46.266;20.062;2022-12-29T06:30:12;20.90;;;11.52;;
1759;SDS011;877;46.266;20.062;2022-12-29T06:32:46;23.30;;;12.50;;
1759;SDS011;877;46.266;20.062;2022-12-29T06:35:13;22.77;;;12.85;;
1759;SDS011;877;46.266;20.062;2022-12-29T06:37:46;26.40;;;12.02;;
1759;SDS011;877;46.266;20.062;2022-12-29T06:40:28;24.48;;;12.93;;
1759;SDS011;877;46.266;20.062;2022-12-29T06:43:01;24.58;;;12.25;;
1759;SDS011;877;46.266;20.062;2022-12-29T06:47:58;22.67;;;12.43;;
1759;SDS011;877;46.266;20.062;2022-12-29T06:50:25;21.17;;;12.70;;
1759;SDS011;877;46.266;20.062;2022-12-29T06:52:51;20.02;;;11.63;;
1759;SDS011;877;46.266;20.062;2022-12-29T06:55:18;25.75;;;12.95;;
1759;SDS011;877;46.266;20.062;2022-12-29T06:57:46;21.50;;;13.27;;
1759;SDS011;877;46.266;20.062;2022-12-29T07:00:12;23.65;;;14.13;;
1759;SDS011;877;46.266;20.062;2022-12-29T07:02:48;25.40;;;13.15;;
1759;SDS011;877;46.266;20.062;2022-12-29T07:05:16;23.02;;;13.07;;
1759;SDS011;877;46.266;20.062;2022-12-29T07:07:48;21.58;;;13.57;;
1759;SDS011;877;46.266;20.062;2022-12-29T07:10:15;24.23;;;13.80;;
1759;SDS011;877;46.266;20.062;2022-12-29T07:12:43;24.80;;;13.88;;
1759;SDS011;877;46.266;20.062;2022-12-29T07:15:18;24.10;;;14.00;;
1759;SDS011;877;46.266;20.062;2022-12-29T07:17:46;24.90;;;13.60;;
1759;SDS011;877;46.266;20.062;2022-12-29T07:20:14;22.75;;;13.90;;
1759;SDS011;877;46.266;20.062;2022-12-29T07:22:48;24.20;;;14.60;;
1759;SDS011;877;46.266;20.062;2022-12-29T07:25:20;22.70;;;15.65;;
1759;SDS011;877;46.266;20.062;2022-12-29T07:27:49;26.48;;;15.07;;
1759;SDS011;877;46.266;20.062;2022-12-29T07:30:26;26.42;;;15.82;;
1759;SDS011;877;46.266;20.062;2022-12-29T07:32:54;23.40;;;14.75;;
1759;SDS011;877;46.266;20.062;2022-12-29T07:35:22;26.42;;;15.48;;
1759;SDS011;877;46.266;20.062;2022-12-29T07:38:00;27.85;;;17.15;;
1759;SDS011;877;46.266;20.062;2022-12-29T07:43:02;32.00;;;16.45;;
1759;SDS011;877;46.266;20.062;2022-12-29T07:51:02;28.13;;;15.57;;
1759;SDS011;877;46.266;20.062;2022-12-29T07:53:29;28.90;;;16.05;;
1759;SDS011;877;46.266;20.062;2022-12-29T07:58:32;50.35;;;29.55;;
1759;SDS011;877;46.266;20.062;2022-12-29T08:00:59;30.13;;;17.45;;
1759;SDS011;877;46.266;20.062;2022-12-29T08:03:29;26.17;;;16.00;;
1759;SDS011;877;46.266;20.062;2022-12-29T08:08:45;25.08;;;15.85;;
1759;SDS011;877;46.266;20.062;2022-12-29T08:11:14;23.02;;;13.50;;
1759;SDS011;877;46.266;20.062;2022-12-29T08:16:14;24.58;;;14.80;;
1759;SDS011;877;46.266;20.062;2022-12-29T08:21:11;28.05;;;16.00;;
1759;SDS011;877;46.266;20.062;2022-12-29T08:23:37;27.20;;;16.40;;
1759;SDS011;877;46.266;20.062;2022-12-29T08:26:08;25.88;;;15.23;;
1759;SDS011;877;46.266;20.062;2022-12-29T08:31:05;29.13;;;18.48;;
1759;SDS011;877;46.266;20.062;2022-12-29T08:33:40;26.45;;;17.50;;
1759;SDS011;877;46.266;20.062;2022-12-29T08:36:18;27.58;;;15.52;;
1759;SDS011;877;46.266;20.062;2022-12-29T08:38:45;32.55;;;19.02;;
1759;SDS011;877;46.266;20.062;2022-12-29T08:41:13;29.40;;;16.80;;
1759;SDS011;877;46.266;20.062;2022-12-29T08:43:41;28.92;;;18.50;;
1759;SDS011;877;46.266;20.062;2022-12-29T08:46:11;36.35;;;19.55;;
1759;SDS011;877;46.266;20.062;2022-12-29T08:48:43;30.48;;;19.35;;
1759;SDS011;877;46.266;20.062;2022-12-29T08:51:09;29.70;;;18.35;;
1759;SDS011;877;46.266;20.062;2022-12-29T08:53:36;30.38;;;18.08;;
1759;SDS011;877;46.266;20.062;2022-12-29T08:56:08;29.83;;;19.45;;
1759;SDS011;877;46.266;20.062;2022-12-29T08:58:38;29.80;;;18.83;;
1759;SDS011;877;46.266;20.062;2022-12-29T09:08:41;32.38;;;19.05;;
1759;SDS011;877;46.266;20.062;2022-12-29T09:11:18;36.05;;;21.58;;
1759;SDS011;877;46.266;20.062;2022-12-29T09:13:44;32.05;;;19.88;;
1759;SDS011;877;46.266;20.062;2022-12-29T09:16:15;32.30;;;18.50;;
1759;SDS011;877;46.266;20.062;2022-12-29T09:18:47;27.45;;;19.00;;
1759;SDS011;877;46.266;20.062;2022-12-29T09:21:13;30.95;;;18.02;;
1759;SDS011;877;46.266;20.062;2022-12-29T09:23:53;40.13;;;23.20;;
1759;SDS011;877;46.266;20.062;2022-12-29T09:26:22;36.28;;;20.65;;
1759;SDS011;877;46.266;20.062;2022-12-29T09:28:49;36.92;;;23.85;;
1759;SDS011;877;46.266;20.062;2022-12-29T09:31:15;33.72;;;20.55;;
1759;SDS011;877;46.266;20.062;2022-12-29T09:33:45;37.72;;;22.70;;
1759;SDS011;877;46.266;20.062;2022-12-29T09:36:14;34.17;;;19.25;;
1759;SDS011;877;46.266;20.062;2022-12-29T09:38:42;42.38;;;26.45;;
1759;SDS011;877;46.266;20.062;2022-12-29T09:41:24;46.58;;;26.50;;
1759;SDS011;877;46.266;20.062;2022-12-29T09:44:40;39.05;;;23.10;;
1759;SDS011;877;46.266;20.062;2022-12-29T09:46:51;153.80;;;72.47;;
1759;SDS011;877;46.266;20.062;2022-12-29T09:52:23;259.88;;;122.28;;
1759;SDS011;877;46.266;20.062;2022-12-29T09:57:45;47.38;;;28.73;;
1759;SDS011;877;46.266;20.062;2022-12-29T10:00:21;44.05;;;27.67;;
1759;SDS011;877;46.266;20.062;2022-12-29T10:05:27;37.72;;;24.88;;
1759;SDS011;877;46.266;20.062;2022-12-29T10:11:54;38.28;;;25.65;;
1759;SDS011;877;46.266;20.062;2022-12-29T10:25:11;42.40;;;25.15;;
1759;SDS011;877;46.266;20.062;2022-12-29T10:27:39;37.80;;;24.08;;
1759;SDS011;877;46.266;20.062;2022-12-29T10:30:11;40.28;;;22.80;;
1759;SDS011;877;46.266;20.062;2022-12-29T10:35:40;34.83;;;21.52;;
1759;SDS011;877;46.266;20.062;2022-12-29T10:43:48;35.83;;;22.48;;
1759;SDS011;877;46.266;20.062;2022-12-29T10:46:32;38.83;;;23.63;;
1759;SDS011;877;46.266;20.062;2022-12-29T10:48:59;31.00;;;20.10;;
1759;SDS011;877;46.266;20.062;2022-12-29T10:51:35;38.58;;;24.00;;
1759;SDS011;877;46.266;20.062;2022-12-29T10:56:38;41.13;;;25.10;;
1759;SDS011;877;46.266;20.062;2022-12-29T10:59:23;37.35;;;23.15;;
1759;SDS011;877;46.266;20.062;2022-12-29T11:07:34;36.40;;;23.27;;
1759;SDS011;877;46.266;20.062;2022-12-29T11:15:27;33.92;;;21.58;;
1759;SDS011;877;46.266;20.062;2022-12-29T11:17:56;36.47;;;24.40;;
1759;SDS011;877;46.266;20.062;2022-12-29T11:23:00;40.88;;;23.63;;
1759;SDS011;877;46.266;20.062;2022-12-29T11:25:35;31.80;;;21.52;;
1759;SDS011;877;46.266;20.062;2022-12-29T11:28:18;38.88;;;23.23;;
1759;SDS011;877;46.266;20.062;2022-12-29T11:30:45;36.65;;;20.90;;
1759;SDS011;877;46.266;20.062;2022-12-29T11:33:27;35.55;;;22.00;;
1759;SDS011;877;46.266;20.062;2022-12-29T11:35:57;42.38;;;23.25;;
1759;SDS011;877;46.266;20.062;2022-12-29T11:41:02;33.20;;;21.38;;
1759;SDS011;877;46.266;20.062;2022-12-29T11:43:42;35.92;;;23.35;;
1759;SDS011;877;46.266;20.062;2022-12-29T11:48:44;36.22;;;22.60;;
1759;SDS011;877;46.266;20.062;2022-12-29T11:51:27;42.90;;;23.77;;
1759;SDS011;877;46.266;20.062;2022-12-29T11:53:56;31.50;;;20.67;;
1759;SDS011;877;46.266;20.062;2022-12-29T11:56:33;37.03;;;20.85;;
1759;SDS011;877;46.266;20.062;2022-12-29T12:01:50;38.95;;;21.63;;
1759;SDS011;877;46.266;20.062;2022-12-29T12:04:26;37.83;;;23.90;;
1759;SDS011;877;46.266;20.062;2022-12-29T12:09:32;35.33;;;23.92;;
1759;SDS011;877;46.266;20.062;2022-12-29T12:20:19;41.80;;;24.65;;
1759;SDS011;877;46.266;20.062;2022-12-29T12:22:58;33.88;;;21.63;;
1759;SDS011;877;46.266;20.062;2022-12-29T12:25:29;35.80;;;22.42;;
1759;SDS011;877;46.266;20.062;2022-12-29T12:28:02;38.25;;;24.98;;
1759;SDS011;877;46.266;20.062;2022-12-29T12:30:37;40.08;;;23.63;;
1759;SDS011;877;46.266;20.062;2022-12-29T12:49:44;36.97;;;24.30;;
1759;SDS011;877;46.266;20.062;2022-12-29T12:55:05;31.80;;;24.50;;
1759;SDS011;877;46.266;20.062;2022-12-29T13:00:31;33.47;;;21.70;;
1759;SDS011;877;46.266;20.062;2022-12-29T13:03:13;34.42;;;21.25;;
1759;SDS011;877;46.266;20.062;2022-12-29T13:06:02;32.95;;;21.65;;
1759;SDS011;877;46.266;20.062;2022-12-29T13:19:04;397.55;;;151.18;;
1759;SDS011;877;46.266;20.062;2022-12-29T13:30:11;139.90;;;69.60;;
1759;SDS011;877;46.266;20.062;2022-12-29T13:40:52;63.50;;;43.72;;
1759;SDS011;877;46.266;20.062;2022-12-29T13:43:33;101.65;;;61.90;;
1759;SDS011;877;46.266;20.062;2022-12-29T13:46:08;230.52;;;109.60;;
1759;SDS011;877;46.266;20.062;2022-12-29T13:51:08;66.45;;;36.65;;
1759;SDS011;877;46.266;20.062;2022-12-29T14:05:01;31.13;;;21.15;;
1759;SDS011;877;46.266;20.062;2022-12-29T14:07:27;43.30;;;28.50;;
1759;SDS011;877;46.266;20.062;2022-12-29T14:13:09;29.20;;;19.73;;
1759;SDS011;877;46.266;20.062;2022-12-29T14:18:19;33.35;;;22.60;;
1759;SDS011;877;46.266;20.062;2022-12-29T14:20:52;33.65;;;24.10;;
1759;SDS011;877;46.266;20.062;2022-12-29T14:23:34;39.80;;;23.25;;
1759;SDS011;877;46.266;20.062;2022-12-29T14:42:13;30.95;;;20.65;;
1759;SDS011;877;46.266;20.062;2022-12-29T14:44:51;31.88;;;21.08;;
1759;SDS011;877;46.266;20.062;2022-12-29T14:50:05;38.90;;;25.08;;
1759;SDS011;877;46.266;20.062;2022-12-29T14:52:49;35.08;;;23.63;;
1759;SDS011;877;46.266;20.062;2022-12-29T14:58:14;33.10;;;21.27;;
1759;SDS011;877;46.266;20.062;2022-12-29T15:00:40;37.30;;;22.25;;
1759;SDS011;877;46.266;20.062;2022-12-29T15:08:28;39.05;;;24.83;;
1759;SDS011;877;46.266;20.062;2022-12-29T15:11:31;38.10;;;25.73;;
1759;SDS011;877;46.266;20.062;2022-12-29T15:13:51;45.22;;;27.02;;
1759;SDS011;877;46.266;20.062;2022-12-29T15:19:23;35.90;;;25.27;;
1759;SDS011;877;46.266;20.062;2022-12-29T15:21:52;35.50;;;24.58;;
1759;SDS011;877;46.266;20.062;2022-12-29T15:24:24;39.10;;;26.10;;
1759;SDS011;877;46.266;20.062;2022-12-29T15:26:52;43.58;;;27.58;;
1759;SDS011;877;46.266;20.062;2022-12-29T15:34:59;39.58;;;25.13;;
1759;SDS011;877;46.266;20.062;2022-12-29T15:40:21;51.95;;;34.55;;
1759;SDS011;877;46.266;20.062;2022-12-29T15:45:23;62.90;;;44.38;;
1759;SDS011;877;46.266;20.062;2022-12-29T15:47:59;49.33;;;30.85;;
1759;SDS011;877;46.266;20.062;2022-12-29T15:50:33;47.90;;;27.98;;
1759;SDS011;877;46.266;20.062;2022-12-29T15:53:00;54.50;;;27.98;;
1759;SDS011;877;46.266;20.062;2022-12-29T15:55:34;49.55;;;28.75;;
1759;SDS011;877;46.266;20.062;2022-12-29T15:58:02;38.47;;;24.90;;
1759;SDS011;877;46.266;20.062;2022-12-29T16:00:39;36.92;;;24.50;;
1759;SDS011;877;46.266;20.062;2022-12-29T16:03:12;41.65;;;24.50;;
1759;SDS011;877;46.266;20.062;2022-12-29T16:05:49;31.20;;;22.30;;
1759;SDS011;877;46.266;20.062;2022-12-29T16:08:31;36.95;;;23.13;;
1759;SDS011;877;46.266;20.062;2022-12-29T16:11:00;39.05;;;22.77;;
1759;SDS011;877;46.266;20.062;2022-12-29T16:13:28;37.92;;;24.40;;
1759;SDS011;877;46.266;20.062;2022-12-29T16:16:01;40.63;;;26.83;;
1759;SDS011;877;46.266;20.062;2022-12-29T16:18:33;32.80;;;24.08;;
1759;SDS011;877;46.266;20.062;2022-12-29T16:20:59;36.85;;;24.38;;
1759;SDS011;877;46.266;20.062;2022-12-29T16:23:28;43.95;;;26.20;;
1759;SDS011;877;46.266;20.062;2022-12-29T16:25:57;44.03;;;26.50;;
1759;SDS011;877;46.266;20.062;2022-12-29T16:28:24;35.28;;;24.17;;
1759;SDS011;877;46.266;20.062;2022-12-29T16:31:04;41.70;;;25.02;;
1759;SDS011;877;46.266;20.062;2022-12-29T16:33:38;41.15;;;25.13;;
1759;SDS011;877;46.266;20.062;2022-12-29T16:41:41;52.17;;;30.13;;
1759;SDS011;877;46.266;20.062;2022-12-29T16:44:28;44.92;;;31.08;;
1759;SDS011;877;46.266;20.062;2022-12-29T16:49:48;72.55;;;40.17;;
1759;SDS011;877;46.266;20.062;2022-12-29T16:54:50;70.35;;;38.38;;
1759;SDS011;877;46.266;20.062;2022-12-29T16:57:21;59.33;;;37.72;;
1759;SDS011;877;46.266;20.062;2022-12-29T16:59:49;55.70;;;37.08;;
1759;SDS011;877;46.266;20.062;2022-12-29T17:02:20;50.70;;;34.72;;
1759;SDS011;877;46.266;20.062;2022-12-29T17:04:51;51.83;;;34.95;;
1759;SDS011;877;46.266;20.062;2022-12-29T17:07:20;51.25;;;29.95;;
1759;SDS011;877;46.266;20.062;2022-12-29T17:10:00;50.85;;;31.20;;
1759;SDS011;877;46.266;20.062;2022-12-29T17:17:54;49.25;;;33.85;;
1759;SDS011;877;46.266;20.062;2022-12-29T17:26:18;38.47;;;28.05;;
1759;SDS011;877;46.266;20.062;2022-12-29T17:28:52;47.53;;;28.40;;
1759;SDS011;877;46.266;20.062;2022-12-29T17:31:31;43.03;;;28.13;;
1759;SDS011;877;46.266;20.062;2022-12-29T17:33:58;35.67;;;23.98;;
1759;SDS011;877;46.266;20.062;2022-12-29T17:36:32;46.13;;;27.00;;
1759;SDS011;877;46.266;20.062;2022-12-29T17:39:00;59.67;;;34.78;;
1759;SDS011;877;46.266;20.062;2022-12-29T17:41:27;51.30;;;33.55;;
1759;SDS011;877;46.266;20.062;2022-12-29T17:43:55;41.53;;;28.30;;
1759;SDS011;877;46.266;20.062;2022-12-29T17:49:11;39.40;;;28.80;;
1759;SDS011;877;46.266;20.062;2022-12-29T17:51:37;45.80;;;30.20;;
1759;SDS011;877;46.266;20.062;2022-12-29T17:54:07;45.63;;;29.50;;
1759;SDS011;877;46.266;20.062;2022-12-29T17:56:41;38.20;;;26.30;;
1759;SDS011;877;46.266;20.062;2022-12-29T17:59:10;43.22;;;28.65;;
1759;SDS011;877;46.266;20.062;2022-12-29T18:01:42;48.33;;;30.02;;
1759;SDS011;877;46.266;20.062;2022-12-29T18:04:12;38.13;;;28.17;;
1759;SDS011;877;46.266;20.062;2022-12-29T18:06:45;57.67;;;31.02;;
1759;SDS011;877;46.266;20.062;2022-12-29T18:09:13;49.30;;;30.13;;
1759;SDS011;877;46.266;20.062;2022-12-29T18:11:46;39.22;;;29.13;;
1759;SDS011;877;46.266;20.062;2022-12-29T18:14:13;42.08;;;28.38;;
1759;SDS011;877;46.266;20.062;2022-12-29T18:16:42;40.10;;;28.05;;
1759;SDS011;877;46.266;20.062;2022-12-29T18:21:38;53.78;;;31.25;;
1759;SDS011;877;46.266;20.062;2022-12-29T18:26:37;52.72;;;32.92;;
1759;SDS011;877;46.266;20.062;2022-12-29T18:29:05;58.60;;;33.13;;
1759;SDS011;877;46.266;20.062;2022-12-29T18:31:36;46.88;;;31.25;;
1759;SDS011;877;46.266;20.062;2022-12-29T18:34:18;51.58;;;32.65;;
1759;SDS011;877;46.266;20.062;2022-12-29T18:39:23;55.58;;;33.28;;
1759;SDS011;877;46.266;20.062;2022-12-29T18:41:51;50.58;;;34.83;;
1759;SDS011;877;46.266;20.062;2022-12-29T18:47:01;49.55;;;31.05;;
1759;SDS011;877;46.266;20.062;2022-12-29T18:49:28;50.78;;;31.75;;
1759;SDS011;877;46.266;20.062;2022-12-29T18:52:11;50.22;;;31.20;;
1759;SDS011;877;46.266;20.062;2022-12-29T18:54:37;56.17;;;30.65;;
1759;SDS011;877;46.266;20.062;2022-12-29T18:57:17;52.70;;;31.33;;
1759;SDS011;877;46.266;20.062;2022-12-29T18:59:44;53.35;;;33.92;;
1759;SDS011;877;46.266;20.062;2022-12-29T19:02:14;48.20;;;32.42;;
1759;SDS011;877;46.266;20.062;2022-12-29T19:04:42;43.10;;;28.63;;
1759;SDS011;877;46.266;20.062;2022-12-29T19:07:10;47.25;;;31.73;;
1759;SDS011;877;46.266;20.062;2022-12-29T19:09:37;50.42;;;30.73;;
1759;SDS011;877;46.266;20.062;2022-12-29T19:12:05;45.40;;;29.50;;
1759;SDS011;877;46.266;20.062;2022-12-29T19:14:33;54.58;;;36.72;;
1759;SDS011;877;46.266;20.062;2022-12-29T19:17:07;48.55;;;30.27;;
1759;SDS011;877;46.266;20.062;2022-12-29T19:19:33;51.88;;;34.65;;
1759;SDS011;877;46.266;20.062;2022-12-29T19:21:59;72.78;;;43.60;;
1759;SDS011;877;46.266;20.062;2022-12-29T19:24:26;83.80;;;46.05;;
1759;SDS011;877;46.266;20.062;2022-12-29T19:29:25;90.30;;;57.40;;
1759;SDS011;877;46.266;20.062;2022-12-29T19:31:51;95.07;;;56.95;;
1759;SDS011;877;46.266;20.062;2022-12-29T19:34:17;101.00;;;61.90;;
1759;SDS011;877;46.266;20.062;2022-12-29T19:36:44;93.82;;;61.33;;
1759;SDS011;877;46.266;20.062;2022-12-29T19:39:11;96.70;;;59.05;;
1759;SDS011;877;46.266;20.062;2022-12-29T19:44:11;69.90;;;49.25;;
1759;SDS011;877;46.266;20.062;2022-12-29T19:46:40;49.83;;;35.05;;
1759;SDS011;877;46.266;20.062;2022-12-29T19:49:14;72.70;;;50.83;;
1759;SDS011;877;46.266;20.062;2022-12-29T19:51:40;67.22;;;47.25;;
1759;SDS011;877;46.266;20.062;2022-12-29T19:54:10;65.30;;;41.85;;
1759;SDS011;877;46.266;20.062;2022-12-29T19:56:40;65.05;;;43.00;;
1759;SDS011;877;46.266;20.062;2022-12-29T19:59:10;76.40;;;49.50;;
1759;SDS011;877;46.266;20.062;2022-12-29T20:01:36;54.10;;;36.97;;
1759;SDS011;877;46.266;20.062;2022-12-29T20:04:02;53.08;;;34.83;;
1759;SDS011;877;46.266;20.062;2022-12-29T20:06:36;53.10;;;33.83;;
1759;SDS011;877;46.266;20.062;2022-12-29T20:09:12;66.18;;;42.05;;
1759;SDS011;877;46.266;20.062;2022-12-29T20:11:40;56.63;;;36.33;;
1759;SDS011;877;46.266;20.062;2022-12-29T20:14:08;49.03;;;32.10;;
1759;SDS011;877;46.266;20.062;2022-12-29T20:19:10;59.90;;;33.17;;
1759;SDS011;877;46.266;20.062;2022-12-29T20:21:36;53.78;;;33.28;;
1759;SDS011;877;46.266;20.062;2022-12-29T20:26:34;76.80;;;48.15;;
1759;SDS011;877;46.266;20.062;2022-12-29T20:29:01;77.50;;;48.08;;
1759;SDS011;877;46.266;20.062;2022-12-29T20:31:29;75.43;;;44.90;;
1759;SDS011;877;46.266;20.062;2022-12-29T20:33:59;69.57;;;41.30;;
1759;SDS011;877;46.266;20.062;2022-12-29T20:36:28;63.53;;;42.35;;
1759;SDS011;877;46.266;20.062;2022-12-29T20:38:55;53.95;;;37.28;;
1759;SDS011;877;46.266;20.062;2022-12-29T20:41:22;60.38;;;36.30;;
1759;SDS011;877;46.266;20.062;2022-12-29T20:43:56;56.42;;;37.00;;
1759;SDS011;877;46.266;20.062;2022-12-29T20:46:32;58.60;;;38.50;;
1759;SDS011;877;46.266;20.062;2022-12-29T20:48:58;57.10;;;35.53;;